sensor_id;sensor_type;location;lat;lon;timestamp;pressure;altitude;pressure_sealevel;temperature;humidity
73143;BME280;61343;53.694;9.988;2022-09-27T00:00:42;99008.69;;;10.35;99.04
73143;BME280;61343;53.694;9.988;2022-09-27T00:03:09;99006.31;;;10.38;99.12
73143;BME280;61343;53.694;9.988;2022-09-27T00:05:35;99007.38;;;10.37;99.04
73143;BME280;61343;53.694;9.988;2022-09-27T00:08:01;99010.34;;;10.41;98.83
73143;BME280;61343;53.694;9.988;2022-09-27T00:10:26;99012.91;;;10.31;99.26
73143;BME280;61343;53.694;9.988;2022-09-27T00:12:53;99014.56;;;10.37;98.96
73143;BME280;61343;53.694;9.988;2022-09-27T00:15:18;99005.00;;;10.41;99.15
73143;BME280;61343;53.694;9.988;2022-09-27T00:17:44;98999.38;;;10.42;99.38
73143;BME280;61343;53.694;9.988;2022-09-27T00:20:10;99004.53;;;10.49;99.02
73143;BME280;61343;53.694;9.988;2022-09-27T00:22:36;99005.53;;;10.43;99.09
73143;BME280;61343;53.694;9.988;2022-09-27T00:25:02;98997.03;;;10.46;99.08
73143;BME280;61343;53.694;9.988;2022-09-27T00:27:30;98999.19;;;10.49;99.27
73143;BME280;61343;53.694;9.988;2022-09-27T00:29:55;99000.19;;;10.43;98.79
73143;BME280;61343;53.694;9.988;2022-09-27T00:32:20;98997.81;;;10.46;98.85
73143;BME280;61343;53.694;9.988;2022-09-27T00:34:46;98989.50;;;10.43;99.17
73143;BME280;61343;53.694;9.988;2022-09-27T00:37:11;98990.31;;;10.43;98.93
73143;BME280;61343;53.694;9.988;2022-09-27T00:39:37;98983.97;;;10.49;98.94
73143;BME280;61343;53.694;9.988;2022-09-27T00:42:04;98986.91;;;10.48;99.15
73143;BME280;61343;53.694;9.988;2022-09-27T00:47:20;98977.81;;;10.54;99.10
73143;BME280;61343;53.694;9.988;2022-09-27T00:49:54;98983.66;;;10.46;98.61
73143;BME280;61343;53.694;9.988;2022-09-27T00:52:39;98978.31;;;10.46;98.98
73143;BME280;61343;53.694;9.988;2022-09-27T00:55:10;98977.28;;;10.52;99.53
73143;BME280;61343;53.694;9.988;2022-09-27T00:57:38;98970.91;;;10.58;99.24
73143;BME280;61343;53.694;9.988;2022-09-27T01:00:07;98971.72;;;10.58;99.11
73143;BME280;61343;53.694;9.988;2022-09-27T01:02:34;98971.22;;;10.61;99.03
73143;BME280;61343;53.694;9.988;2022-09-27T01:05:02;98968.28;;;10.63;99.12
73143;BME280;61343;53.694;9.988;2022-09-27T01:07:29;98964.56;;;10.69;99.17
73143;BME280;61343;53.694;9.988;2022-09-27T01:09:55;98964.25;;;10.60;98.58
73143;BME280;61343;53.694;9.988;2022-09-27T01:12:38;98961.03;;;10.58;98.85
73143;BME280;61343;53.694;9.988;2022-09-27T01:15:28;98962.16;;;10.62;99.18
73143;BME280;61343;53.694;9.988;2022-09-27T01:28:54;98949.41;;;10.43;99.69
73143;BME280;61343;53.694;9.988;2022-09-27T01:31:23;98955.09;;;10.51;99.69
73143;BME280;61343;53.694;9.988;2022-09-27T01:42:07;98942.31;;;10.53;99.29
73143;BME280;61343;53.694;9.988;2022-09-27T01:44:49;98939.13;;;10.56;99.49
73143;BME280;61343;53.694;9.988;2022-09-27T01:47:50;98940.91;;;10.46;99.77
73143;BME280;61343;53.694;9.988;2022-09-27T01:50:28;98939.88;;;10.52;99.61
73143;BME280;61343;53.694;9.988;2022-09-27T01:53:04;98934.00;;;10.50;99.74
73143;BME280;61343;53.694;9.988;2022-09-27T01:55:35;98932.94;;;10.51;99.96
73143;BME280;61343;53.694;9.988;2022-09-27T01:58:12;98930.00;;;10.52;99.73
73143;BME280;61343;53.694;9.988;2022-09-27T02:00:41;98919.59;;;10.56;99.74
73143;BME280;61343;53.694;9.988;2022-09-27T02:03:13;98915.84;;;10.57;99.66
73143;BME280;61343;53.694;9.988;2022-09-27T02:05:50;98922.50;;;10.54;99.51
73143;BME280;61343;53.694;9.988;2022-09-27T02:10:59;98916.91;;;10.56;99.82
73143;BME280;61343;53.694;9.988;2022-09-27T02:16:41;98918.78;;;10.55;99.28
73143;BME280;61343;53.694;9.988;2022-09-27T02:22:35;98912.13;;;10.58;99.04
73143;BME280;61343;53.694;9.988;2022-09-27T02:25:09;98906.78;;;10.58;99.09
73143;BME280;61343;53.694;9.988;2022-09-27T02:28:00;98909.47;;;10.63;99.36
73143;BME280;61343;53.694;9.988;2022-09-27T02:30:31;98907.56;;;10.53;99.36
73143;BME280;61343;53.694;9.988;2022-09-27T02:32:56;98907.28;;;10.55;99.47
73143;BME280;61343;53.694;9.988;2022-09-27T02:35:28;98902.44;;;10.47;99.69
73143;BME280;61343;53.694;9.988;2022-09-27T02:37:55;98907.78;;;10.47;99.94
73143;BME280;61343;53.694;9.988;2022-09-27T02:40:21;98907.28;;;10.55;99.55
73143;BME280;61343;53.694;9.988;2022-09-27T02:42:47;98898.72;;;10.53;99.38
73143;BME280;61343;53.694;9.988;2022-09-27T02:45:15;98904.06;;;10.53;99.07
73143;BME280;61343;53.694;9.988;2022-09-27T02:47:58;98893.38;;;10.53;99.46
73143;BME280;61343;53.694;9.988;2022-09-27T02:53:15;98896.78;;;10.43;99.65
73143;BME280;61343;53.694;9.988;2022-09-27T02:58:59;98888.78;;;10.43;99.85
73143;BME280;61343;53.694;9.988;2022-09-27T03:04:11;98887.94;;;10.38;100.00
73143;BME280;61343;53.694;9.988;2022-09-27T03:06:41;98890.59;;;10.38;100.00
73143;BME280;61343;53.694;9.988;2022-09-27T03:09:24;98892.22;;;10.39;100.00
73143;BME280;61343;53.694;9.988;2022-09-27T03:11:52;98889.00;;;10.37;100.00
73143;BME280;61343;53.694;9.988;2022-09-27T03:14:17;98877.28;;;10.43;100.00
73143;BME280;61343;53.694;9.988;2022-09-27T03:16:42;98880.00;;;10.48;100.00
73143;BME280;61343;53.694;9.988;2022-09-27T03:19:08;98888.84;;;10.53;100.00
73143;BME280;61343;53.694;9.988;2022-09-27T03:21:34;98876.84;;;10.56;99.59
73143;BME280;61343;53.694;9.988;2022-09-27T03:24:00;98877.63;;;10.56;100.00
73143;BME280;61343;53.694;9.988;2022-09-27T03:26:25;98884.81;;;10.51;99.80
73143;BME280;61343;53.694;9.988;2022-09-27T03:28:51;98879.00;;;10.64;100.00
73143;BME280;61343;53.694;9.988;2022-09-27T03:31:16;98879.75;;;10.54;99.43
73143;BME280;61343;53.694;9.988;2022-09-27T03:33:42;98868.00;;;10.55;99.62
73143;BME280;61343;53.694;9.988;2022-09-27T03:36:07;98868.03;;;10.60;99.42
73143;BME280;61343;53.694;9.988;2022-09-27T03:38:32;98865.09;;;10.62;99.63
73143;BME280;61343;53.694;9.988;2022-09-27T03:40:58;98864.84;;;10.63;99.24
73143;BME280;61343;53.694;9.988;2022-09-27T03:43:23;98863.19;;;10.57;99.67
73143;BME280;61343;53.694;9.988;2022-09-27T03:45:49;98857.31;;;10.55;99.29
73143;BME280;61343;53.694;9.988;2022-09-27T03:48:14;98859.16;;;10.55;99.39
73143;BME280;61343;53.694;9.988;2022-09-27T03:50:39;98857.56;;;10.54;99.22
73143;BME280;61343;53.694;9.988;2022-09-27T03:53:05;98848.47;;;10.50;99.06
73143;BME280;61343;53.694;9.988;2022-09-27T03:55:30;98856.47;;;10.50;99.54
73143;BME280;61343;53.694;9.988;2022-09-27T03:57:55;98853.91;;;10.65;99.93
73143;BME280;61343;53.694;9.988;2022-09-27T04:00:21;98859.25;;;10.65;98.87
73143;BME280;61343;53.694;9.988;2022-09-27T04:02:46;98852.03;;;10.66;99.11
73143;BME280;61343;53.694;9.988;2022-09-27T04:05:12;98848.56;;;10.65;98.83
73143;BME280;61343;53.694;9.988;2022-09-27T04:07:37;98844.78;;;10.66;98.35
73143;BME280;61343;53.694;9.988;2022-09-27T04:10:03;98845.56;;;10.56;98.78
73143;BME280;61343;53.694;9.988;2022-09-27T04:12:29;98850.63;;;10.53;99.33
73143;BME280;61343;53.694;9.988;2022-09-27T04:14:54;98842.25;;;10.39;99.58
73143;BME280;61343;53.694;9.988;2022-09-27T04:17:20;98852.69;;;10.41;99.73
73143;BME280;61343;53.694;9.988;2022-09-27T04:19:45;98844.69;;;10.46;99.88
73143;BME280;61343;53.694;9.988;2022-09-27T04:22:11;98841.47;;;10.39;99.88
73143;BME280;61343;53.694;9.988;2022-09-27T04:24:37;98837.69;;;10.40;99.72
73143;BME280;61343;53.694;9.988;2022-09-27T04:27:03;98847.84;;;10.38;100.00
73143;BME280;61343;53.694;9.988;2022-09-27T04:29:29;98841.91;;;10.31;100.00
73143;BME280;61343;53.694;9.988;2022-09-27T04:31:54;98839.25;;;10.31;100.00
73143;BME280;61343;53.694;9.988;2022-09-27T04:34:20;98844.66;;;10.36;100.00
73143;BME280;61343;53.694;9.988;2022-09-27T04:37:05;98846.28;;;10.42;100.00
73143;BME280;61343;53.694;9.988;2022-09-27T04:39:30;98847.94;;;10.48;100.00
73143;BME280;61343;53.694;9.988;2022-09-27T04:41:55;98843.38;;;10.48;100.00
73143;BME280;61343;53.694;9.988;2022-09-27T04:44:21;98849.00;;;10.52;100.00
73143;BME280;61343;53.694;9.988;2022-09-27T04:46:46;98845.78;;;10.45;99.39
73143;BME280;61343;53.694;9.988;2022-09-27T04:49:11;98839.34;;;10.46;99.61
73143;BME280;61343;53.694;9.988;2022-09-27T04:51:37;98831.28;;;10.36;100.00
73143;BME280;61343;53.694;9.988;2022-09-27T04:54:02;98834.50;;;10.43;100.00
73143;BME280;61343;53.694;9.988;2022-09-27T04:56:27;98831.81;;;10.38;100.00
73143;BME280;61343;53.694;9.988;2022-09-27T04:58:53;98839.34;;;10.46;100.00
73143;BME280;61343;53.694;9.988;2022-09-27T05:01:18;98837.69;;;10.35;100.00
73143;BME280;61343;53.694;9.988;2022-09-27T05:03:43;98843.09;;;10.45;100.00
73143;BME280;61343;53.694;9.988;2022-09-27T05:06:09;98837.78;;;10.50;100.00
73143;BME280;61343;53.694;9.988;2022-09-27T05:08:34;98836.44;;;10.47;100.00
73143;BME280;61343;53.694;9.988;2022-09-27T05:11:00;98837.75;;;10.45;100.00
73143;BME280;61343;53.694;9.988;2022-09-27T05:13:25;98837.28;;;10.58;100.00
73143;BME280;61343;53.694;9.988;2022-09-27T05:15:51;98845.81;;;10.60;99.62
73143;BME280;61343;53.694;9.988;2022-09-27T05:18:16;98839.94;;;10.53;99.71
73143;BME280;61343;53.694;9.988;2022-09-27T05:20:42;98836.75;;;10.56;100.00
73143;BME280;61343;53.694;9.988;2022-09-27T05:23:09;98843.13;;;10.55;99.98
73143;BME280;61343;53.694;9.988;2022-09-27T05:25:34;98840.47;;;10.55;99.57
73143;BME280;61343;53.694;9.988;2022-09-27T05:27:59;98838.91;;;10.59;100.00
73143;BME280;61343;53.694;9.988;2022-09-27T05:30:25;98838.38;;;10.62;99.86
73143;BME280;61343;53.694;9.988;2022-09-27T05:32:51;98839.72;;;10.59;99.20
73143;BME280;61343;53.694;9.988;2022-09-27T05:35:17;98835.44;;;10.63;99.76
73143;BME280;61343;53.694;9.988;2022-09-27T05:37:43;98832.47;;;10.60;99.93
73143;BME280;61343;53.694;9.988;2022-09-27T05:40:08;98840.53;;;10.65;99.74
73143;BME280;61343;53.694;9.988;2022-09-27T05:42:34;98842.69;;;10.68;99.73
73143;BME280;61343;53.694;9.988;2022-09-27T05:45:03;98846.13;;;10.63;99.26
73143;BME280;61343;53.694;9.988;2022-09-27T05:47:29;98843.22;;;10.70;99.78
73143;BME280;61343;53.694;9.988;2022-09-27T05:49:54;98842.97;;;10.72;99.60
73143;BME280;61343;53.694;9.988;2022-09-27T05:52:20;98848.06;;;10.78;99.34
73143;BME280;61343;53.694;9.988;2022-09-27T05:54:45;98847.78;;;10.75;99.10
73143;BME280;61343;53.694;9.988;2022-09-27T05:57:10;98842.69;;;10.73;99.45
73143;BME280;61343;53.694;9.988;2022-09-27T05:59:36;98844.84;;;10.76;99.43
73143;BME280;61343;53.694;9.988;2022-09-27T06:02:01;98845.38;;;10.73;99.42
73143;BME280;61343;53.694;9.988;2022-09-27T06:04:26;98848.03;;;10.73;99.46
73143;BME280;61343;53.694;9.988;2022-09-27T06:06:52;98843.50;;;10.74;99.49
73143;BME280;61343;53.694;9.988;2022-09-27T06:09:17;98849.91;;;10.68;99.45
73143;BME280;61343;53.694;9.988;2022-09-27T06:11:43;98851.25;;;10.70;99.72
73143;BME280;61343;53.694;9.988;2022-09-27T06:14:12;98856.34;;;10.77;99.55
73143;BME280;61343;53.694;9.988;2022-09-27T06:16:38;98846.47;;;10.77;99.14
73143;BME280;61343;53.694;9.988;2022-09-27T06:19:03;98853.41;;;10.78;99.65
73143;BME280;61343;53.694;9.988;2022-09-27T06:21:29;98853.69;;;10.82;99.44
73143;BME280;61343;53.694;9.988;2022-09-27T06:23:55;98852.06;;;10.71;99.56
73143;BME280;61343;53.694;9.988;2022-09-27T06:26:21;98852.34;;;10.74;99.95
73143;BME280;61343;53.694;9.988;2022-09-27T06:28:46;98849.69;;;10.79;99.47
73143;BME280;61343;53.694;9.988;2022-09-27T06:31:12;98854.00;;;10.85;99.13
73143;BME280;61343;53.694;9.988;2022-09-27T06:33:38;98852.13;;;10.91;98.69
73143;BME280;61343;53.694;9.988;2022-09-27T06:36:05;98859.84;;;10.82;99.09
73143;BME280;61343;53.694;9.988;2022-09-27T06:38:31;98851.88;;;10.92;98.22
73143;BME280;61343;53.694;9.988;2022-09-27T06:41:00;98856.91;;;10.84;99.32
73143;BME280;61343;53.694;9.988;2022-09-27T06:43:25;98857.47;;;10.91;98.90
73143;BME280;61343;53.694;9.988;2022-09-27T06:45:51;98853.19;;;10.85;98.51
73143;BME280;61343;53.694;9.988;2022-09-27T06:48:16;98856.69;;;10.90;98.66
73143;BME280;61343;53.694;9.988;2022-09-27T06:50:44;98855.09;;;10.94;98.49
73143;BME280;61343;53.694;9.988;2022-09-27T06:53:11;98858.28;;;10.86;98.99
73143;BME280;61343;53.694;9.988;2022-09-27T06:55:37;98863.34;;;10.88;98.88
73143;BME280;61343;53.694;9.988;2022-09-27T06:58:03;98870.03;;;10.85;99.31
73143;BME280;61343;53.694;9.988;2022-09-27T07:00:49;98878.59;;;10.87;98.05
73143;BME280;61343;53.694;9.988;2022-09-27T07:03:14;98867.38;;;10.90;98.37
73143;BME280;61343;53.694;9.988;2022-09-27T07:05:40;98864.97;;;10.89;97.84
73143;BME280;61343;53.694;9.988;2022-09-27T07:08:08;98871.13;;;10.89;97.73
73143;BME280;61343;53.694;9.988;2022-09-27T07:10:34;98875.38;;;10.85;97.83
73143;BME280;61343;53.694;9.988;2022-09-27T07:13:05;98874.28;;;10.81;98.30
73143;BME280;61343;53.694;9.988;2022-09-27T07:15:35;98870.56;;;10.82;98.62
73143;BME280;61343;53.694;9.988;2022-09-27T07:18:02;98878.81;;;10.81;98.07
73143;BME280;61343;53.694;9.988;2022-09-27T07:20:28;98879.63;;;10.81;97.90
73143;BME280;61343;53.694;9.988;2022-09-27T07:22:54;98883.63;;;10.79;97.52
73143;BME280;61343;53.694;9.988;2022-09-27T07:25:20;98878.81;;;10.81;98.09
73143;BME280;61343;53.694;9.988;2022-09-27T07:27:46;98882.56;;;10.80;98.62
73143;BME280;61343;53.694;9.988;2022-09-27T07:30:12;98887.19;;;10.89;98.76
73143;BME280;61343;53.694;9.988;2022-09-27T07:32:38;98891.44;;;10.95;98.07
73143;BME280;61343;53.694;9.988;2022-09-27T07:35:04;98896.78;;;10.90;98.05
73143;BME280;61343;53.694;9.988;2022-09-27T07:37:31;98897.34;;;10.92;98.58
73143;BME280;61343;53.694;9.988;2022-09-27T07:39:57;98903.25;;;10.94;98.04
73143;BME280;61343;53.694;9.988;2022-09-27T07:42:22;98897.28;;;10.82;98.71
73143;BME280;61343;53.694;9.988;2022-09-27T07:44:48;98901.09;;;10.91;98.08
73143;BME280;61343;53.694;9.988;2022-09-27T07:47:13;98903.47;;;10.93;98.02
73143;BME280;61343;53.694;9.988;2022-09-27T07:49:38;98905.41;;;10.97;97.17
73143;BME280;61343;53.694;9.988;2022-09-27T07:52:04;98905.34;;;10.87;98.28
73143;BME280;61343;53.694;9.988;2022-09-27T07:54:29;98905.34;;;10.87;98.53
73143;BME280;61343;53.694;9.988;2022-09-27T07:56:55;98916.31;;;10.91;99.21
73143;BME280;61343;53.694;9.988;2022-09-27T07:59:20;98917.66;;;10.93;98.70
73143;BME280;61343;53.694;9.988;2022-09-27T08:01:45;98915.00;;;10.98;97.49
73143;BME280;61343;53.694;9.988;2022-09-27T08:04:11;98913.16;;;10.99;97.54
73143;BME280;61343;53.694;9.988;2022-09-27T08:06:36;98925.97;;;10.97;97.86
73143;BME280;61343;53.694;9.988;2022-09-27T08:09:05;98925.44;;;10.95;96.19
73143;BME280;61343;53.694;9.988;2022-09-27T08:11:34;98928.59;;;10.87;97.22
73143;BME280;61343;53.694;9.988;2022-09-27T08:14:00;98928.34;;;10.88;96.80
73143;BME280;61343;53.694;9.988;2022-09-27T08:16:25;98927.56;;;10.93;95.68
73143;BME280;61343;53.694;9.988;2022-09-27T08:18:50;98930.53;;;10.96;96.09
73143;BME280;61343;53.694;9.988;2022-09-27T08:21:16;98932.88;;;10.88;96.31
73143;BME280;61343;53.694;9.988;2022-09-27T08:23:42;98935.84;;;10.86;95.51
73143;BME280;61343;53.694;9.988;2022-09-27T08:26:07;98938.44;;;10.81;97.36
73143;BME280;61343;53.694;9.988;2022-09-27T08:28:32;98943.56;;;10.88;96.61
73143;BME280;61343;53.694;9.988;2022-09-27T08:30:57;98939.03;;;10.88;97.49
73143;BME280;61343;53.694;9.988;2022-09-27T08:33:23;98942.78;;;10.87;97.23
73143;BME280;61343;53.694;9.988;2022-09-27T08:35:50;98948.16;;;10.92;97.46
73143;BME280;61343;53.694;9.988;2022-09-27T08:38:15;98946.78;;;10.90;97.28
73143;BME280;61343;53.694;9.988;2022-09-27T08:40:59;98948.41;;;10.91;97.36
73143;BME280;61343;53.694;9.988;2022-09-27T08:46:55;98949.78;;;10.98;95.97
73143;BME280;61343;53.694;9.988;2022-09-27T08:49:08;98960.44;;;10.88;97.54
73143;BME280;61343;53.694;9.988;2022-09-27T08:51:35;98967.41;;;10.89;97.97
73143;BME280;61343;53.694;9.988;2022-09-27T08:54:22;98967.06;;;10.81;96.98
73143;BME280;61343;53.694;9.988;2022-09-27T08:56:49;98962.78;;;10.80;97.19
73143;BME280;61343;53.694;9.988;2022-09-27T08:59:19;98971.66;;;10.85;97.09
73143;BME280;61343;53.694;9.988;2022-09-27T09:01:48;98980.78;;;10.89;96.55
73143;BME280;61343;53.694;9.988;2022-09-27T09:04:24;98980.50;;;10.91;97.25
73143;BME280;61343;53.694;9.988;2022-09-27T09:20:24;98980.28;;;10.97;96.25
73143;BME280;61343;53.694;9.988;2022-09-27T09:31:00;98991.22;;;10.96;95.59
73143;BME280;61343;53.694;9.988;2022-09-27T09:33:34;98996.84;;;10.94;95.91
73143;BME280;61343;53.694;9.988;2022-09-27T09:38:44;98997.16;;;10.98;97.01
73143;BME280;61343;53.694;9.988;2022-09-27T09:41:28;98989.84;;;10.88;94.83
73143;BME280;61343;53.694;9.988;2022-09-27T09:44:17;98993.56;;;10.82;95.69
73143;BME280;61343;53.694;9.988;2022-09-27T09:46:48;98991.13;;;10.81;96.68
73143;BME280;61343;53.694;9.988;2022-09-27T09:49:28;98994.91;;;10.85;97.48
73143;BME280;61343;53.694;9.988;2022-09-27T09:52:01;98997.28;;;10.81;96.21
73143;BME280;61343;53.694;9.988;2022-09-27T09:54:29;98999.38;;;10.74;96.61
73143;BME280;61343;53.694;9.988;2022-09-27T09:59:40;98997.78;;;10.73;98.06
73143;BME280;61343;53.694;9.988;2022-09-27T10:02:31;98995.59;;;10.70;98.26
73143;BME280;61343;53.694;9.988;2022-09-27T10:04:58;99003.09;;;10.68;97.96
73143;BME280;61343;53.694;9.988;2022-09-27T10:07:24;99004.13;;;10.67;97.89
73143;BME280;61343;53.694;9.988;2022-09-27T10:09:54;98999.78;;;10.56;98.13
73143;BME280;61343;53.694;9.988;2022-09-27T10:12:20;99005.16;;;10.61;98.22
73143;BME280;61343;53.694;9.988;2022-09-27T10:14:47;99006.28;;;10.65;98.07
73143;BME280;61343;53.694;9.988;2022-09-27T10:17:17;99010.28;;;10.68;97.62
73143;BME280;61343;53.694;9.988;2022-09-27T10:19:43;99004.34;;;10.60;96.77
73143;BME280;61343;53.694;9.988;2022-09-27T10:27:17;99017.41;;;10.57;97.86
73143;BME280;61343;53.694;9.988;2022-09-27T10:29:43;99021.72;;;10.58;97.83
73143;BME280;61343;53.694;9.988;2022-09-27T10:32:21;99018.19;;;10.52;97.64
73143;BME280;61343;53.694;9.988;2022-09-27T10:34:48;99022.53;;;10.58;97.37
73143;BME280;61343;53.694;9.988;2022-09-27T10:37:18;99022.75;;;10.57;97.60
73143;BME280;61343;53.694;9.988;2022-09-27T10:39:47;99028.63;;;10.54;97.63
73143;BME280;61343;53.694;9.988;2022-09-27T10:42:20;99031.03;;;10.55;98.34
73143;BME280;61343;53.694;9.988;2022-09-27T10:44:46;99032.38;;;10.53;97.54
73143;BME280;61343;53.694;9.988;2022-09-27T10:47:16;99029.41;;;10.54;97.01
73143;BME280;61343;53.694;9.988;2022-09-27T10:49:46;99045.97;;;10.51;97.98
73143;BME280;61343;53.694;9.988;2022-09-27T10:52:20;99035.03;;;10.53;96.07
73143;BME280;61343;53.694;9.988;2022-09-27T10:54:56;99047.31;;;10.54;96.14
73143;BME280;61343;53.694;9.988;2022-09-27T10:57:27;99028.34;;;10.50;96.52
73143;BME280;61343;53.694;9.988;2022-09-27T10:59:59;99033.88;;;10.44;95.22
73143;BME280;61343;53.694;9.988;2022-09-27T11:02:31;99029.94;;;10.51;95.66
73143;BME280;61343;53.694;9.988;2022-09-27T11:05:08;99038.78;;;10.57;95.61
73143;BME280;61343;53.694;9.988;2022-09-27T11:07:36;99033.00;;;10.65;95.12
73143;BME280;61343;53.694;9.988;2022-09-27T11:10:20;99041.31;;;10.69;94.03
73143;BME280;61343;53.694;9.988;2022-09-27T11:15:30;99036.34;;;10.82;94.27
73143;BME280;61343;53.694;9.988;2022-09-27T11:18:09;99034.28;;;10.94;95.60
73143;BME280;61343;53.694;9.988;2022-09-27T11:20:46;99044.00;;;11.05;94.27
73143;BME280;61343;53.694;9.988;2022-09-27T11:23:27;99046.75;;;11.15;94.08
73143;BME280;61343;53.694;9.988;2022-09-27T11:26:28;99040.34;;;11.22;94.11
73143;BME280;61343;53.694;9.988;2022-09-27T11:32:12;99053.97;;;11.20;94.92
73143;BME280;61343;53.694;9.988;2022-09-27T11:37:49;99046.75;;;11.15;93.90
73143;BME280;61343;53.694;9.988;2022-09-27T11:45:53;99053.25;;;11.30;94.09
73143;BME280;61343;53.694;9.988;2022-09-27T11:48:38;99046.78;;;11.26;94.21
73143;BME280;61343;53.694;9.988;2022-09-27T11:54:12;99052.22;;;11.36;93.36
73143;BME280;61343;53.694;9.988;2022-09-27T11:59:53;99059.16;;;11.37;92.35
73143;BME280;61343;53.694;9.988;2022-09-27T12:08:46;99060.56;;;11.44;92.74
73143;BME280;61343;53.694;9.988;2022-09-27T12:11:25;99063.44;;;11.33;94.07
73143;BME280;61343;53.694;9.988;2022-09-27T12:13:59;99057.88;;;11.49;91.91
73143;BME280;61343;53.694;9.988;2022-09-27T12:16:27;99056.31;;;11.48;93.18
73143;BME280;61343;53.694;9.988;2022-09-27T12:18:56;99056.81;;;11.45;91.75
73143;BME280;61343;53.694;9.988;2022-09-27T12:21:23;99061.97;;;11.57;92.30
73143;BME280;61343;53.694;9.988;2022-09-27T12:23:53;99068.38;;;11.56;92.30
73143;BME280;61343;53.694;9.988;2022-09-27T12:26:24;99057.66;;;11.56;91.53
73143;BME280;61343;53.694;9.988;2022-09-27T12:28:54;99067.84;;;11.59;91.17
73143;BME280;61343;53.694;9.988;2022-09-27T12:34:31;99068.38;;;11.61;91.04
73143;BME280;61343;53.694;9.988;2022-09-27T12:37:18;99069.53;;;11.70;90.26
73143;BME280;61343;53.694;9.988;2022-09-27T12:39:49;99064.13;;;11.65;90.67
73143;BME280;61343;53.694;9.988;2022-09-27T12:42:24;99067.88;;;11.64;91.89
73143;BME280;61343;53.694;9.988;2022-09-27T12:44:50;99065.19;;;11.64;90.83
73143;BME280;61343;53.694;9.988;2022-09-27T12:50:05;99065.72;;;11.61;89.37
73143;BME280;61343;53.694;9.988;2022-09-27T12:52:43;99057.16;;;11.64;90.07
73143;BME280;61343;53.694;9.988;2022-09-27T12:58:08;99056.09;;;11.65;90.18
73143;BME280;61343;53.694;9.988;2022-09-27T13:01:16;99059.28;;;11.57;89.22
73143;BME280;61343;53.694;9.988;2022-09-27T13:04:21;99056.34;;;11.58;90.74
73143;BME280;61343;53.694;9.988;2022-09-27T13:12:08;99072.38;;;11.53;89.87
73143;BME280;61343;53.694;9.988;2022-09-27T13:14:40;99071.88;;;11.61;89.60
73143;BME280;61343;53.694;9.988;2022-09-27T13:17:33;99078.03;;;11.62;89.66
73143;BME280;61343;53.694;9.988;2022-09-27T13:22:56;99081.34;;;11.74;88.62
73143;BME280;61343;53.694;9.988;2022-09-27T13:31:12;99086.66;;;11.69;88.73
73143;BME280;61343;53.694;9.988;2022-09-27T13:33:48;99095.16;;;11.61;88.36
73143;BME280;61343;53.694;9.988;2022-09-27T13:44:27;99093.13;;;11.73;89.93
73143;BME280;61343;53.694;9.988;2022-09-27T13:52:43;99107.91;;;11.81;88.62
73143;BME280;61343;53.694;9.988;2022-09-27T13:55:46;99104.41;;;11.80;87.75
73143;BME280;61343;53.694;9.988;2022-09-27T14:00:51;99094.75;;;11.79;90.99
73143;BME280;61343;53.694;9.988;2022-09-27T14:03:44;99097.72;;;11.78;88.63
73143;BME280;61343;53.694;9.988;2022-09-27T14:06:21;99102.78;;;11.74;89.74
73143;BME280;61343;53.694;9.988;2022-09-27T14:08:55;99110.72;;;11.64;90.26
73143;BME280;61343;53.694;9.988;2022-09-27T14:11:27;99122.50;;;11.63;90.57
73143;BME280;61343;53.694;9.988;2022-09-27T14:13:54;99117.06;;;11.53;89.40
73143;BME280;61343;53.694;9.988;2022-09-27T14:16:20;99120.19;;;11.40;90.95
73143;BME280;61343;53.694;9.988;2022-09-27T14:18:52;99115.34;;;11.32;91.42
73143;BME280;61343;53.694;9.988;2022-09-27T14:21:28;99126.56;;;11.29;93.64
73143;BME280;61343;53.694;9.988;2022-09-27T14:26:50;99130.84;;;11.30;94.01
73143;BME280;61343;53.694;9.988;2022-09-27T14:29:31;99127.13;;;11.31;94.50
73143;BME280;61343;53.694;9.988;2022-09-27T14:32:04;99119.09;;;11.31;94.35
73143;BME280;61343;53.694;9.988;2022-09-27T14:34:30;99133.31;;;11.36;93.31
73143;BME280;61343;53.694;9.988;2022-09-27T14:36:55;99131.41;;;11.37;93.71
73143;BME280;61343;53.694;9.988;2022-09-27T14:39:40;99134.59;;;11.34;93.90
73143;BME280;61343;53.694;9.988;2022-09-27T14:42:21;99126.56;;;11.29;93.86
73143;BME280;61343;53.694;9.988;2022-09-27T14:44:49;99139.38;;;11.22;93.86
73143;BME280;61343;53.694;9.988;2022-09-27T14:47:19;99136.72;;;11.27;92.91
73143;BME280;61343;53.694;9.988;2022-09-27T14:49:50;99137.22;;;11.24;93.86
73143;BME280;61343;53.694;9.988;2022-09-27T14:52:22;99145.75;;;11.20;92.94
73143;BME280;61343;53.694;9.988;2022-09-27T14:57:31;99154.00;;;11.14;93.89
73143;BME280;61343;53.694;9.988;2022-09-27T15:00:01;99140.94;;;11.17;92.48
73143;BME280;61343;53.694;9.988;2022-09-27T15:02:34;99144.09;;;11.09;93.55
73143;BME280;61343;53.694;9.988;2022-09-27T15:05:01;99147.13;;;10.91;96.02
73143;BME280;61343;53.694;9.988;2022-09-27T15:07:26;99155.19;;;10.96;96.49
73143;BME280;61343;53.694;9.988;2022-09-27T15:09:52;99151.97;;;10.94;94.74
73143;BME280;61343;53.694;9.988;2022-09-27T15:12:23;99166.34;;;10.88;95.22
73143;BME280;61343;53.694;9.988;2022-09-27T15:14:53;99170.34;;;10.86;95.64
73143;BME280;61343;53.694;9.988;2022-09-27T15:17:20;99166.31;;;10.83;95.61
73143;BME280;61343;53.694;9.988;2022-09-27T15:20:16;99158.66;;;10.92;95.41
73143;BME280;61343;53.694;9.988;2022-09-27T15:22:43;99156.22;;;10.90;96.82
73143;BME280;61343;53.694;9.988;2022-09-27T15:25:23;99159.09;;;10.84;96.90
73143;BME280;61343;53.694;9.988;2022-09-27T15:27:52;99157.31;;;10.94;97.10
73143;BME280;61343;53.694;9.988;2022-09-27T15:30:23;99158.41;;;10.98;96.96
73143;BME280;61343;53.694;9.988;2022-09-27T15:32:51;99156.53;;;10.99;96.51
73143;BME280;61343;53.694;9.988;2022-09-27T15:35:22;99161.66;;;11.00;96.77
73143;BME280;61343;53.694;9.988;2022-09-27T15:37:48;99159.78;;;11.01;96.71
73143;BME280;61343;53.694;9.988;2022-09-27T15:42:59;99168.09;;;11.04;97.02